Time;durP1;ratioP1;P1;durP2;ratioP2;P2;SDS_P1;SDS_P2;PMS_P1;PMS_P2;Temp;Humidity;BMP_temperature;BMP_pressure;BME280_temperature;BME280_humidity;BME280_pressure;Samples;Min_cycle;Max_cycle;Signal;HPM_P1;HPM_P2
2022/04/17 00:00:20;;;;;;;4.60;3.93;;;;;;;7.96;100.00;96952.22;5083893;28;20299;-85
2022/04/17 00:02:47;;;;;;;4.23;3.77;;;;;;;7.88;100.00;96950.53;5089928;28;20218;-87
2022/04/17 00:05:14;;;;;;;5.03;3.80;;;;;;;7.89;100.00;96960.25;5079078;28;20189;-87
2022/04/17 00:07:41;;;;;;;4.67;3.60;;;;;;;7.85;100.00;96945.53;5070626;28;20228;-87
2022/04/17 00:10:09;;;;;;;3.93;3.40;;;;;;;7.89;100.00;96941.44;5079927;28;20292;-89
2022/04/17 00:12:36;;;;;;;2.90;2.63;;;;;;;7.96;100.00;96950.34;5075748;28;20210;-88
2022/04/17 00:15:04;;;;;;;3.30;3.00;;;;;;;8.09;100.00;96954.13;5083001;28;20240;-88
2022/04/17 00:17:33;;;;;;;4.03;3.53;;;;;;;8.06;100.00;96955.38;5096127;27;20333;-88
2022/04/17 00:20:00;;;;;;;4.30;3.00;;;;;;;7.88;100.00;96937.06;5079222;28;20227;-87
2022/04/17 00:22:27;;;;;;;5.13;2.93;;;;;;;7.90;100.00;96939.56;5073782;28;20209;-88
2022/04/17 00:24:54;;;;;;;3.67;3.33;;;;;;;7.94;100.00;96941.66;5091591;27;20291;-87
2022/04/17 00:27:22;;;;;;;4.10;3.40;;;;;;;7.93;100.00;96936.47;5079890;28;20300;-88
2022/04/17 00:29:49;;;;;;;4.40;3.13;;;;;;;7.86;100.00;96932.91;5081334;28;20208;-87
2022/04/17 00:32:16;;;;;;;3.70;3.40;;;;;;;7.82;100.00;96943.25;5079462;28;20209;-88
2022/04/17 00:34:45;;;;;;;3.97;3.17;;;;;;;7.75;100.00;96928.91;5084122;28;20204;-88
2022/04/17 00:37:12;;;;;;;4.60;3.20;;;;;;;7.73;100.00;96922.09;5085025;28;20209;-89
2022/04/17 00:39:40;;;;;;;4.43;3.30;;;;;;;7.84;100.00;96924.22;5077662;28;20201;-89
2022/04/17 00:42:09;;;;;;;4.17;3.60;;;;;;;7.73;100.00;96917.56;5080347;28;20200;-89
2022/04/17 00:44:37;;;;;;;3.70;3.30;;;;;;;7.61;100.00;96924.50;5075286;28;20211;-88
2022/04/17 00:47:05;;;;;;;5.30;3.60;;;;;;;7.50;100.00;96919.69;5078915;28;20209;-87
2022/04/17 00:49:32;;;;;;;4.70;2.90;;;;;;;7.48;100.00;96905.63;5085185;28;20224;-88
2022/04/17 00:52:01;;;;;;;3.70;3.00;;;;;;;7.52;100.00;96915.78;5074240;28;20212;-89
2022/04/17 00:54:31;;;;;;;2.93;2.67;;;;;;;7.57;100.00;96910.63;5076852;28;20205;-88
2022/04/17 00:57:00;;;;;;;3.73;3.20;;;;;;;7.66;100.00;96907.78;5082732;28;20205;-89
2022/04/17 00:59:28;;;;;;;5.33;3.27;;;;;;;7.72;100.00;96912.38;5082330;28;20321;-87
2022/04/17 01:01:55;;;;;;;3.57;3.20;;;;;;;7.72;100.00;96915.06;5084627;28;20244;-88
2022/04/17 01:04:22;;;;;;;3.43;2.97;;;;;;;7.85;100.00;96909.75;5083146;28;20598;-87
2022/04/17 01:06:49;;;;;;;4.03;3.17;;;;;;;7.71;100.00;96910.72;5092003;28;20197;-89
2022/04/17 01:09:18;;;;;;;3.87;3.13;;;;;;;7.54;100.00;96913.72;5073200;28;20458;-87
2022/04/17 01:11:48;;;;;;;4.07;3.40;;;;;;;7.46;100.00;96908.50;5079967;28;20206;-87
2022/04/17 01:14:15;;;;;;;4.60;3.53;;;;;;;7.45;100.00;96906.84;5074563;28;20328;-87
2022/04/17 01:16:42;;;;;;;3.33;3.03;;;;;;;7.47;100.00;96906.66;5082993;28;20226;-87
2022/04/17 01:19:12;;;;;;;3.90;3.30;;;;;;;7.37;100.00;96892.72;5096178;28;20216;-87
2022/04/17 01:21:41;;;;;;;3.70;3.23;;;;;;;7.35;100.00;96892.94;5079994;28;20259;-87
2022/04/17 01:26:58;;;;;;;3.13;2.83;;;;;;;7.56;100.00;96897.41;5081501;28;20297;-86
2022/04/17 01:29:27;;;;;;;4.17;3.30;;;;;;;7.55;100.00;96895.75;5075336;28;20201;-87
2022/04/17 01:31:54;;;;;;;3.77;3.10;;;;;;;7.55;100.00;96899.25;5084641;28;20209;-89
2022/04/17 01:34:23;;;;;;;3.53;2.77;;;;;;;7.59;100.00;96905.88;5080665;28;20204;-85
2022/04/17 01:36:52;;;;;;;3.70;2.97;;;;;;;7.51;100.00;96903.34;5077788;28;20442;-88
2022/04/17 01:39:19;;;;;;;3.97;3.33;;;;;;;7.42;100.00;96909.09;5080297;28;20212;-88
2022/04/17 01:41:47;;;;;;;3.43;2.87;;;;;;;7.41;100.00;96904.72;5077395;28;20201;-87
2022/04/17 01:44:16;;;;;;;3.43;2.90;;;;;;;7.38;100.00;96907.84;5075428;28;20236;-88
2022/04/17 01:46:43;;;;;;;3.97;3.30;;;;;;;7.40;100.00;96898.53;5075690;28;20201;-87
2022/04/17 01:49:11;;;;;;;3.47;3.17;;;;;;;7.37;100.00;96893.56;5098623;28;20208;-87
2022/04/17 01:51:40;;;;;;;3.70;2.97;;;;;;;7.42;100.00;96893.78;5077066;28;20261;-87
2022/04/17 01:54:10;;;;;;;3.50;3.20;;;;;;;7.43;100.00;96887.41;5088215;28;20295;-88
2022/04/17 01:56:38;;;;;;;3.93;3.10;;;;;;;7.48;100.00;96889.50;5076220;28;20244;-88
2022/04/17 01:59:06;;;;;;;3.50;2.83;;;;;;;7.46;100.00;96889.69;5087822;28;20233;-85
2022/04/17 02:01:34;;;;;;;3.53;3.10;;;;;;;7.40;100.00;96874.34;5075618;28;20216;-89
2022/04/17 02:04:01;;;;;;;4.00;3.00;;;;;;;7.38;100.00;96873.75;5085477;28;20216;-87
2022/04/17 02:06:29;;;;;;;3.57;3.00;;;;;;;7.33;100.00;96878.84;5082765;28;20223;-87
2022/04/17 02:08:56;;;;;;;3.23;2.80;;;;;;;7.21;100.00;96872.38;5083339;28;20189;-86
2022/04/17 02:11:27;;;;;;;4.93;3.30;;;;;;;7.22;100.00;96868.69;5079440;28;20205;-87
2022/04/17 02:13:55;;;;;;;3.47;2.97;;;;;;;7.27;100.00;96857.34;5074807;28;20232;-87
2022/04/17 02:16:22;;;;;;;3.70;3.27;;;;;;;7.24;100.00;96853.16;5085124;28;20213;-88
2022/04/17 02:18:52;;;;;;;3.73;3.30;;;;;;;7.25;100.00;96860.19;5070151;28;20225;-87
2022/04/17 02:21:21;;;;;;;5.03;3.00;;;;;;;7.27;100.00;96862.69;5077848;28;20213;-86
2022/04/17 02:23:49;;;;;;;3.57;2.77;;;;;;;7.26;100.00;96869.94;5096673;28;20252;-88
2022/04/17 02:26:17;;;;;;;5.63;3.60;;;;;;;7.24;100.00;96874.66;5072032;28;20288;-88
2022/04/17 02:28:47;;;;;;;3.37;3.07;;;;;;;7.19;100.00;96861.84;5080030;28;20204;-88
2022/04/17 02:31:17;;;;;;;3.77;2.87;;;;;;;7.08;100.00;96864.22;5077503;28;20205;-87
2022/04/17 02:33:44;;;;;;;3.40;3.10;;;;;;;7.00;100.00;96864.38;5076360;28;20201;-86
2022/04/17 02:36:11;;;;;;;4.00;3.60;;;;;;;6.89;100.00;96860.34;5082722;28;20295;-87
2022/04/17 02:38:38;;;;;;;3.93;3.10;;;;;;;6.80;100.00;96859.66;5069272;28;20225;-88
2022/04/17 02:41:05;;;;;;;3.60;3.30;;;;;;;6.79;100.00;96867.94;5082240;28;20299;-86
2022/04/17 02:43:33;;;;;;;4.87;3.30;;;;;;;6.84;100.00;96854.75;5081443;28;20201;-86
2022/04/17 02:46:01;;;;;;;3.63;3.13;;;;;;;6.90;100.00;96845.06;5074182;28;20201;-87
2022/04/17 02:48:27;;;;;;;3.50;3.20;;;;;;;6.88;100.00;96852.53;5073679;28;21682;-85
2022/04/17 02:50:55;;;;;;;3.17;2.87;;;;;;;6.83;100.00;96845.88;5083376;28;20212;-87
2022/04/17 02:53:24;;;;;;;3.90;3.50;;;;;;;6.76;100.00;96839.63;5089131;28;20291;-88
2022/04/17 02:55:52;;;;;;;4.17;3.20;;;;;;;6.74;100.00;96838.16;5080645;28;20215;-88
2022/04/17 02:58:19;;;;;;;4.67;3.33;;;;;;;6.61;100.00;96851.47;5082632;28;20224;-87
2022/04/17 03:06:19;;;;;;;4.07;3.17;;;;;;;6.48;100.00;96836.06;5092358;28;20208;-87
2022/04/17 03:08:46;;;;;;;3.40;3.10;;;;;;;6.46;100.00;96830.88;5092341;28;20205;-86
2022/04/17 03:11:14;;;;;;;3.50;2.93;;;;;;;6.35;100.00;96826.06;5089913;28;20231;-87
2022/04/17 03:13:41;;;;;;;5.70;3.63;;;;;;;6.23;100.00;96832.94;5079502;28;20239;-88
2022/04/17 03:16:09;;;;;;;4.83;3.60;;;;;;;6.21;100.00;96834.19;5081809;28;20247;-87
2022/04/17 03:18:38;;;;;;;3.83;3.43;;;;;;;6.20;100.00;96825.31;5083677;28;20306;-87
2022/04/17 03:21:05;;;;;;;3.50;3.20;;;;;;;6.34;100.00;96831.63;5082228;28;20203;-87
2022/04/17 03:23:32;;;;;;;4.30;3.47;;;;;;;6.38;100.00;96822.19;5073815;28;20306;-88
2022/04/17 03:25:59;;;;;;;5.53;3.43;;;;;;;6.40;100.00;96815.56;5086019;28;20265;-87
2022/04/17 03:28:26;;;;;;;5.17;3.80;;;;;;;6.48;100.00;96825.34;5078020;28;20286;-85
2022/04/17 03:30:53;;;;;;;6.73;4.17;;;;;;;6.46;100.00;96822.84;5081260;28;20201;-86
2022/04/17 03:33:20;;;;;;;4.60;3.80;;;;;;;6.46;100.00;96822.84;5079668;28;20197;-87
2022/04/17 03:35:49;;;;;;;4.33;3.93;;;;;;;6.38;100.00;96824.84;5082139;28;20205;-87
2022/04/17 03:38:16;;;;;;;4.20;3.77;;;;;;;6.27;100.00;96833.41;5085227;28;20223;-89
2022/04/17 03:40:43;;;;;;;4.30;3.90;;;;;;;6.23;100.00;96821.38;5086270;28;20278;-85
2022/04/17 03:43:11;;;;;;;4.30;3.70;;;;;;;6.29;100.00;96836.75;5080388;28;20204;-89
2022/04/17 03:45:40;;;;;;;4.00;3.60;;;;;;;6.31;100.00;96829.31;5085000;28;20193;-87
2022/04/17 03:48:07;;;;;;;5.10;4.00;;;;;;;6.35;100.00;96825.22;5098468;28;20201;-88
2022/04/17 03:50:34;;;;;;;5.37;4.10;;;;;;;6.30;100.00;96820.44;5080519;28;20232;-86
2022/04/17 03:53:03;;;;;;;4.70;4.10;;;;;;;6.30;100.00;96830.31;5073274;28;20240;-88
2022/04/17 03:55:30;;;;;;;5.30;3.60;;;;;;;6.30;100.00;96823.09;5084662;28;20304;-87
2022/04/17 03:57:57;;;;;;;4.20;3.80;;;;;;;6.28;100.00;96824.34;5091936;28;20212;-88
2022/04/17 04:00:25;;;;;;;5.40;4.50;;;;;;;6.28;100.00;96835.06;5089970;28;20212;-87
2022/04/17 04:02:52;;;;;;;6.97;5.60;;;;;;;6.14;100.00;96833.25;5086005;28;20204;-87
2022/04/17 04:05:20;;;;;;;5.90;5.40;;;;;;;6.04;100.00;96818.31;5079624;28;20213;-88
2022/04/17 04:07:47;;;;;;;6.93;5.40;;;;;;;6.04;100.00;96821.00;5097422;28;20205;-89
2022/04/17 04:10:16;;;;;;;4.93;4.40;;;;;;;6.11;100.00;96829.13;5076879;28;20208;-87
2022/04/17 04:12:43;;;;;;;4.60;4.13;;;;;;;6.14;100.00;96822.53;5079083;28;20204;-87
2022/04/17 04:15:10;;;;;;;5.07;4.40;;;;;;;6.18;100.00;96831.88;5089799;28;20233;-87
2022/04/17 04:20:06;;;;;;;5.03;4.40;;;;;;;6.18;100.00;96839.91;5109179;27;20564;-81
2022/04/17 04:22:33;;;;;;;5.00;4.50;;;;;;;6.18;100.00;96831.88;5101281;28;20287;-81
2022/04/17 04:25:00;;;;;;;4.93;4.40;;;;;;;5.94;100.00;96833.91;5093896;28;20224;-81
2022/04/17 04:30:12;;;;;;;6.40;4.43;;;;;;;5.74;100.00;96831.97;5096485;28;20212;-81
2022/04/17 04:32:39;;;;;;;4.33;3.93;;;;;;;5.74;100.00;96826.59;5102381;28;20211;-81
2022/04/17 04:35:08;;;;;;;5.23;4.30;;;;;;;5.73;100.00;96836.50;5090763;28;20607;-81
2022/04/17 04:37:35;;;;;;;5.83;4.10;;;;;;;5.80;100.00;96839.25;5098566;28;20208;-81
2022/04/17 04:40:02;;;;;;;5.53;4.70;;;;;;;5.77;100.00;96836.97;5095823;28;20218;-81
2022/04/17 04:42:29;;;;;;;4.57;4.17;;;;;;;5.69;100.00;96835.22;5096302;28;20196;-81
2022/04/17 04:47:44;;;;;;;5.40;4.57;;;;;;;5.54;100.00;96832.53;5095420;28;20200;-81
2022/04/17 04:50:12;;;;;;;5.60;4.87;;;;;;;5.50;100.00;96841.16;5093128;28;20208;-81
2022/04/17 04:52:39;;;;;;;4.33;3.80;;;;;;;5.55;100.00;96842.25;5096193;28;20196;-80
2022/04/17 04:55:07;;;;;;;5.10;4.60;;;;;;;5.56;100.00;96843.09;5097015;28;20239;-81
2022/04/17 04:57:36;;;;;;;4.77;3.90;;;;;;;5.48;100.00;96843.19;5106527;28;20214;-81
2022/04/17 05:00:05;;;;;;;5.83;4.30;;;;;;;5.34;100.00;96836.84;5095289;27;20203;-80
2022/04/17 05:02:32;;;;;;;5.67;4.10;;;;;;;5.23;100.00;96830.09;5095989;28;20278;-81
2022/04/17 05:05:00;;;;;;;7.40;4.53;;;;;;;5.15;100.00;96824.84;5098392;28;20215;-81
2022/04/17 05:07:28;;;;;;;4.90;4.23;;;;;;;5.18;100.00;96821.81;5096486;28;20204;-81
2022/04/17 05:09:55;;;;;;;6.70;4.27;;;;;;;5.22;100.00;96823.06;5101705;28;20304;-82
2022/04/17 05:12:23;;;;;;;6.47;4.50;;;;;;;5.37;100.00;96840.97;5095529;28;20231;-81
2022/04/17 05:14:50;;;;;;;6.07;4.43;;;;;;;5.34;100.00;96842.19;5091596;28;20212;-81
2022/04/17 05:17:17;;;;;;;5.43;4.20;;;;;;;5.41;100.00;96836.91;5090201;28;20204;-81
2022/04/17 05:19:45;;;;;;;5.00;4.03;;;;;;;5.51;100.00;96848.19;5110953;28;20264;-81
2022/04/17 05:22:16;;;;;;;5.47;4.07;;;;;;;5.50;100.00;96852.72;5089237;28;20302;-80
2022/04/17 05:24:45;;;;;;;4.57;4.00;;;;;;;5.50;100.00;96852.72;5097444;28;20216;-81
2022/04/17 05:27:13;;;;;;;4.60;4.13;;;;;;;5.57;100.00;96858.13;5090991;28;20218;-82
2022/04/17 05:29:40;;;;;;;4.73;4.00;;;;;;;5.51;100.00;96864.25;5090403;28;20205;-82
2022/04/17 05:32:08;;;;;;;5.27;3.93;;;;;;;5.45;100.00;96855.09;5074166;28;20214;-82
2022/04/17 05:34:36;;;;;;;7.00;4.17;;;;;;;5.45;100.00;96862.28;5080806;28;20217;-82
2022/04/17 05:37:03;;;;;;;5.83;4.00;;;;;;;5.41;100.00;96859.19;5079340;28;20217;-82
2022/04/17 05:39:30;;;;;;;6.67;3.90;;;;;;;5.44;100.00;96863.34;5082453;28;20233;-81
2022/04/17 05:41:59;;;;;;;4.77;3.90;;;;;;;5.28;100.00;96848.25;5079534;28;20213;-81
2022/04/17 05:44:26;;;;;;;5.97;4.47;;;;;;;5.22;100.00;96854.38;5081774;28;20347;-81
2022/04/17 05:46:53;;;;;;;4.77;4.20;;;;;;;5.21;100.00;96850.84;5086920;28;20193;-81
2022/04/17 05:49:21;;;;;;;5.33;4.50;;;;;;;5.21;100.00;96852.69;5075404;28;20209;-81
2022/04/17 05:51:48;;;;;;;5.77;4.80;;;;;;;5.09;100.00;96844.31;5081398;28;20321;-81
2022/04/17 05:54:15;;;;;;;6.43;4.10;;;;;;;5.13;100.00;96850.13;5082203;28;20208;-81
2022/04/17 05:56:42;;;;;;;4.83;4.33;;;;;;;5.22;100.00;96852.53;5083367;28;20220;-81
2022/04/17 05:59:10;;;;;;;5.30;4.40;;;;;;;5.40;100.00;96862.03;5093813;28;20312;-82
2022/04/17 06:01:37;;;;;;;4.83;4.10;;;;;;;5.47;100.00;96857.59;5075012;28;20228;-81
2022/04/17 06:04:05;;;;;;;4.80;3.70;;;;;;;5.53;100.00;96862.22;5079591;28;20205;-81
2022/04/17 06:06:32;;;;;;;3.93;3.47;;;;;;;5.52;100.00;96852.53;5077733;28;20189;-83
2022/04/17 06:09:00;;;;;;;4.00;3.50;;;;;;;5.45;100.00;96854.25;5079235;28;20314;-81
2022/04/17 06:11:27;;;;;;;3.97;3.63;;;;;;;5.43;100.00;96846.44;5077161;28;20197;-81
2022/04/17 06:13:55;;;;;;;3.97;3.60;;;;;;;5.49;100.00;96856.41;5078329;28;20198;-82
2022/04/17 06:16:23;;;;;;;4.80;4.00;;;;;;;5.55;100.00;96849.44;5072333;28;20209;-81
2022/04/17 06:18:50;;;;;;;4.67;3.87;;;;;;;5.68;100.00;96855.81;5082376;28;20312;-81
2022/04/17 06:21:18;;;;;;;4.47;3.77;;;;;;;5.65;100.00;96866.06;5075736;28;20205;-80
2022/04/17 06:23:45;;;;;;;5.13;3.90;;;;;;;5.56;100.00;96873.38;5073985;28;20228;-81
2022/04/17 06:26:12;;;;;;;5.27;3.63;;;;;;;5.43;100.00;96850.97;5077403;28;20215;-84
2022/04/17 06:28:39;;;;;;;5.10;3.90;;;;;;;5.43;100.00;96857.16;5075692;28;20242;-83
2022/04/17 06:31:07;;;;;;;5.97;3.90;;;;;;;5.54;100.00;96853.97;5076443;28;20197;-80
2022/04/17 06:33:36;;;;;;;4.77;3.93;;;;;;;5.60;100.00;96853.25;5076451;28;20278;-80
2022/04/17 06:36:03;;;;;;;4.30;3.87;;;;;;;5.71;100.00;96865.31;5075004;28;20215;-81
2022/04/17 06:38:30;;;;;;;4.47;3.77;;;;;;;5.77;100.00;96853.88;5071236;28;20224;-81
2022/04/17 06:40:57;;;;;;;4.50;4.10;;;;;;;5.86;100.00;96855.44;5080658;28;20203;-81
2022/04/17 06:43:24;;;;;;;6.10;4.20;;;;;;;5.96;100.00;96855.97;5080515;28;20276;-82
2022/04/17 06:45:51;;;;;;;4.90;4.40;;;;;;;5.97;100.00;96849.59;5083745;28;20595;-81
2022/04/17 06:48:21;;;;;;;5.27;4.70;;;;;;;5.95;100.00;96854.31;5079411;28;20217;-81
2022/04/17 06:50:52;;;;;;;6.00;4.13;;;;;;;5.95;100.00;96859.69;5081185;28;20197;-81
2022/04/17 06:53:19;;;;;;;6.10;4.00;;;;;;;5.93;100.00;96859.03;5078449;28;20212;-81
2022/04/17 06:55:48;;;;;;;4.90;4.33;;;;;;;5.89;100.00;96851.56;5079356;28;20314;-81
2022/04/17 06:58:15;;;;;;;6.03;4.40;;;;;;;5.91;100.00;96845.00;5073079;28;20209;-84
2022/04/17 07:00:42;;;;;;;6.00;5.40;;;;;;;5.94;100.00;96849.16;5081144;28;20205;-82
2022/04/17 07:03:09;;;;;;;5.87;4.67;;;;;;;5.94;100.00;96839.25;5075256;28;20296;-82
2022/04/17 07:05:36;;;;;;;7.60;4.90;;;;;;;5.99;100.00;96850.22;5075820;28;20209;-84
2022/04/17 07:08:06;;;;;;;7.07;4.70;;;;;;;5.99;100.00;96844.88;5076815;28;20296;-85
2022/04/17 07:10:37;;;;;;;5.43;4.80;;;;;;;5.98;100.00;96828.97;5080169;28;20205;-83
2022/04/17 07:13:05;;;;;;;5.03;4.53;;;;;;;5.96;100.00;96839.03;5080164;28;20200;-84
2022/04/17 07:15:32;;;;;;;5.37;4.57;;;;;;;5.95;100.00;96824.84;5081860;28;20204;-84
2022/04/17 07:17:59;;;;;;;4.93;4.40;;;;;;;5.96;100.00;96818.44;5082959;28;20225;-84
2022/04/17 07:20:26;;;;;;;5.87;4.90;;;;;;;5.91;100.00;96815.50;5083674;28;20221;-83
2022/04/17 07:22:53;;;;;;;5.67;4.50;;;;;;;5.91;100.00;96818.19;5083883;28;20289;-84
2022/04/17 07:25:22;;;;;;;6.03;4.13;;;;;;;5.95;100.00;96816.81;5080582;28;20232;-84
2022/04/17 07:27:51;;;;;;;6.90;4.40;;;;;;;5.87;100.00;96814.19;5079427;28;20204;-84
2022/04/17 07:30:21;;;;;;;5.03;4.43;;;;;;;5.84;100.00;96825.28;5079211;28;20265;-84
2022/04/17 07:32:51;;;;;;;5.57;4.70;;;;;;;5.81;100.00;96814.94;5078270;28;20309;-84
2022/04/17 07:35:18;;;;;;;5.93;4.43;;;;;;;5.99;100.00;96826.09;5081471;28;20209;-84
2022/04/17 07:37:50;;;;;;;5.60;4.47;;;;;;;6.07;100.00;96812.59;5072639;28;20206;-84
2022/04/17 07:40:20;;;;;;;6.47;4.80;;;;;;;6.17;100.00;96801.53;5075018;28;20288;-84
2022/04/17 07:42:50;;;;;;;5.10;4.60;;;;;;;6.27;100.00;96807.41;5084528;28;20205;-84
2022/04/17 07:45:18;;;;;;;8.17;4.43;;;;;;;6.38;100.00;96806.09;5083189;28;20211;-84
2022/04/17 07:47:46;;;;;;;6.40;4.57;;;;;;;6.48;100.00;96803.88;5077405;28;20283;-84
2022/04/17 07:50:15;;;;;;;5.30;3.80;;;;;;;6.60;100.00;96813.06;5082202;28;20197;-84
2022/04/17 07:52:43;;;;;;;5.50;4.63;;;;;;;6.72;100.00;96808.00;5077173;28;20208;-84
2022/04/17 07:55:12;;;;;;;6.80;4.80;;;;;;;7.19;100.00;96813.50;5081265;28;20200;-84
2022/04/17 07:58:01;;;;;;;5.73;4.57;;;;;;;7.59;100.00;96809.13;5078527;28;20216;-84
2022/04/17 08:00:32;;;;;;;6.97;5.63;;;;;;;7.98;100.00;96808.47;5080080;28;20232;-84
2022/04/17 08:03:09;;;;;;;6.37;5.20;;;;;;;8.23;100.00;96795.28;5075416;28;20208;-84
2022/04/17 08:05:37;;;;;;;6.47;5.30;;;;;;;8.71;100.00;96795.94;5086428;28;20201;-84
2022/04/17 08:08:06;;;;;;;7.43;6.20;;;;;;;9.09;100.00;96785.34;5073679;28;20205;-84
2022/04/17 08:10:33;;;;;;;6.67;5.53;;;;;;;9.45;97.02;96786.69;5081708;28;20212;-84
2022/04/17 08:13:00;;;;;;;6.27;5.37;;;;;;;9.84;95.74;96785.72;5086148;28;20258;-84
2022/04/17 08:15:27;;;;;;;9.23;5.90;;;;;;;10.18;93.59;96796.16;5081325;28;20221;-84
2022/04/17 08:17:56;;;;;;;7.60;6.03;;;;;;;10.41;89.41;96787.47;5079557;28;20211;-83
2022/04/17 08:20:23;;;;;;;8.60;5.67;;;;;;;10.50;88.49;96794.28;5075206;28;20312;-84
2022/04/17 08:22:50;;;;;;;7.83;5.73;;;;;;;10.40;87.56;96788.53;5079702;28;20200;-84
2022/04/17 08:25:17;;;;;;;6.20;5.47;;;;;;;10.54;86.99;96783.88;5067772;28;20259;-83
2022/04/17 08:27:48;;;;;;;9.27;5.87;;;;;;;10.71;85.21;96784.16;5081971;28;20197;-84
2022/04/17 08:30:19;;;;;;;6.27;5.63;;;;;;;10.82;85.74;96783.41;5090068;28;20235;-83
2022/04/17 08:32:46;;;;;;;59.57;20.23;;;;;;;10.76;85.20;96762.69;5084106;28;20212;-84
2022/04/17 08:35:15;;;;;;;12.97;7.63;;;;;;;11.08;83.99;96780.47;5084792;28;20219;-84
2022/04/17 08:37:43;;;;;;;6.30;5.57;;;;;;;11.05;85.65;96772.00;5078474;28;20193;-84
2022/04/17 08:40:11;;;;;;;6.33;5.60;;;;;;;11.26;83.29;96776.97;5072936;28;20225;-83
2022/04/17 08:42:39;;;;;;;7.27;5.30;;;;;;;11.26;82.72;96772.41;5072924;28;20217;-84
2022/04/17 08:45:09;;;;;;;5.80;5.20;;;;;;;11.30;81.09;96778.19;5081090;28;20201;-84
2022/04/17 08:47:37;;;;;;;6.30;5.70;;;;;;;11.19;81.00;96776.22;5073559;28;20267;-84
2022/04/17 08:50:07;;;;;;;7.13;5.83;;;;;;;11.38;81.72;96765.19;5080901;28;20202;-83
2022/04/17 08:52:37;;;;;;;6.63;5.70;;;;;;;11.40;82.50;96758.75;5077256;28;20224;-84
2022/04/17 08:55:04;;;;;;;8.13;5.77;;;;;;;11.76;80.27;96758.72;5075340;28;20212;-84
2022/04/17 08:57:32;;;;;;;6.50;5.27;;;;;;;11.93;77.76;96765.16;5081871;28;20217;-84
2022/04/17 08:59:59;;;;;;;6.40;5.80;;;;;;;11.83;76.36;96754.06;5074691;28;20228;-84
2022/04/17 09:02:26;;;;;;;6.20;5.50;;;;;;;11.72;77.58;96744.00;5075053;28;20193;-84
2022/04/17 09:04:53;;;;;;;6.97;5.27;;;;;;;11.44;78.17;96751.81;5079283;28;20502;-84
2022/04/17 09:07:20;;;;;;;6.40;5.70;;;;;;;11.51;78.59;96755.25;5083840;28;20308;-84
2022/04/17 09:09:53;;;;;;;6.20;5.60;;;;;;;11.37;78.72;96760.00;5085967;28;20292;-83
2022/04/17 09:12:22;;;;;;;6.67;5.87;;;;;;;11.30;77.84;96746.56;5082606;28;20288;-84
2022/04/17 09:14:49;;;;;;;7.83;6.00;;;;;;;11.44;79.76;96754.53;5086052;28;20270;-84
2022/04/17 09:17:17;;;;;;;6.97;5.70;;;;;;;11.54;77.75;96738.59;5087764;28;20292;-84
2022/04/17 09:19:45;;;;;;;8.23;5.63;;;;;;;11.77;77.67;96746.03;5075112;28;20243;-84
2022/04/17 09:22:12;;;;;;;6.97;5.97;;;;;;;11.77;78.16;96736.03;5090761;28;20296;-83
2022/04/17 09:24:41;;;;;;;6.03;5.33;;;;;;;11.79;75.42;96741.22;5078744;28;20225;-84
2022/04/17 09:27:11;;;;;;;6.43;5.60;;;;;;;11.68;75.22;96732.78;5079092;28;20201;-84
2022/04/17 09:29:39;;;;;;;7.73;5.90;;;;;;;11.72;76.62;96742.13;5089344;28;20268;-84
2022/04/17 09:32:11;;;;;;;6.63;5.77;;;;;;;11.74;75.84;96722.94;5071211;28;20304;-84
2022/04/17 09:34:46;;;;;;;6.83;6.13;;;;;;;11.89;75.36;96728.81;5087753;28;20208;-84
2022/04/17 09:37:15;;;;;;;6.33;5.70;;;;;;;12.00;74.28;96736.13;5088241;28;20204;-84
2022/04/17 09:39:43;;;;;;;7.13;5.70;;;;;;;12.15;73.23;96730.31;5102832;28;20220;-84
2022/04/17 09:42:11;;;;;;;6.60;5.83;;;;;;;12.07;73.34;96715.22;5099916;28;20213;-84
2022/04/17 09:44:51;;;;;;;6.00;5.40;;;;;;;12.13;71.69;96711.59;5075662;28;20209;-84
2022/04/17 09:47:20;;;;;;;7.53;4.97;;;;;;;12.16;69.76;96717.63;5081453;28;20197;-84
2022/04/17 09:49:56;;;;;;;6.23;5.50;;;;;;;12.28;69.89;96710.31;5073700;28;20239;-84
2022/04/17 09:52:24;;;;;;;8.37;5.73;;;;;;;12.30;69.88;96714.47;5085171;28;20200;-84
2022/04/17 09:54:52;;;;;;;5.73;5.13;;;;;;;12.46;69.99;96702.94;5080334;28;20212;-84
2022/04/17 09:57:21;;;;;;;6.53;5.67;;;;;;;12.60;70.44;96705.44;5082840;28;20205;-84
2022/04/17 09:59:48;;;;;;;7.73;6.27;;;;;;;12.76;69.72;96696.63;5070456;28;20234;-84
2022/04/17 10:02:16;;;;;;;6.33;5.73;;;;;;;12.92;68.16;96705.94;5080631;28;20232;-84
2022/04/17 10:04:45;;;;;;;7.37;5.73;;;;;;;12.99;68.25;96693.91;5086082;28;20201;-84
2022/04/17 10:07:14;;;;;;;7.23;5.97;;;;;;;12.96;67.91;96697.06;5080343;28;20207;-83
2022/04/17 10:09:42;;;;;;;7.33;6.03;;;;;;;13.12;67.73;96692.81;5070446;28;20200;-84
2022/04/17 10:12:14;;;;;;;6.40;5.60;;;;;;;13.24;66.65;96677.41;5080484;28;20293;-84
2022/04/17 10:14:43;;;;;;;6.03;5.30;;;;;;;13.45;64.19;96676.75;5079166;28;20209;-84
2022/04/17 10:17:10;;;;;;;6.73;5.60;;;;;;;13.61;64.26;96667.84;5085873;28;20213;-84
2022/04/17 10:19:42;;;;;;;6.33;5.63;;;;;;;13.82;64.52;96665.53;5082539;28;20241;-84
2022/04/17 10:22:10;;;;;;;6.27;4.93;;;;;;;13.87;62.43;96671.03;5079026;28;20219;-84
2022/04/17 10:24:39;;;;;;;5.53;5.03;;;;;;;13.70;64.15;96672.88;5076229;28;20229;-84
2022/04/17 10:27:08;;;;;;;7.27;6.10;;;;;;;13.76;63.67;96652.94;5074798;28;20200;-84
2022/04/17 10:29:41;;;;;;;7.20;5.80;;;;;;;13.85;64.03;96656.91;5087048;28;20204;-84
2022/04/17 10:32:42;;;;;;;6.40;5.40;;;;;;;13.99;62.52;96652.81;5082245;28;20200;-83
2022/04/17 10:35:21;;;;;;;7.40;6.00;;;;;;;13.89;62.06;96642.59;5068358;28;20205;-84
2022/04/17 10:38:17;;;;;;;7.67;6.30;;;;;;;13.94;63.20;96644.59;5077660;28;20201;-84
2022/04/17 10:40:52;;;;;;;6.57;5.40;;;;;;;14.18;61.91;96637.94;5067234;28;20579;-84
2022/04/17 10:43:20;;;;;;;7.87;6.43;;;;;;;14.25;61.75;96632.34;5072690;28;20226;-84
2022/04/17 10:46:10;;;;;;;8.73;6.47;;;;;;;14.12;63.22;96641.63;5075740;28;20194;-84
2022/04/17 10:48:45;;;;;;;6.47;5.83;;;;;;;14.10;63.03;96632.09;5081765;28;20205;-84
2022/04/17 10:51:22;;;;;;;8.43;6.27;;;;;;;14.23;63.97;96634.47;5079067;28;20205;-84
2022/04/17 10:54:09;;;;;;;7.57;6.77;;;;;;;14.08;64.29;96645.91;5077335;28;20240;-84
2022/04/17 10:56:38;;;;;;;8.33;6.77;;;;;;;13.93;61.96;96649.19;5075892;28;20208;-84
2022/04/17 10:59:15;;;;;;;7.67;6.53;;;;;;;13.97;63.25;96636.75;5080420;28;20213;-84
2022/04/17 11:01:56;;;;;;;7.93;6.57;;;;;;;13.86;62.45;96636.84;5081833;28;20312;-84
2022/04/17 11:04:26;;;;;;;7.70;6.50;;;;;;;14.41;62.17;96637.00;5075085;28;20205;-84
2022/04/17 11:07:34;;;;;;;8.00;5.57;;;;;;;14.41;58.93;96636.16;5086470;28;20287;-84
2022/04/17 11:10:20;;;;;;;6.80;6.03;;;;;;;14.38;58.98;96635.59;5074253;28;20294;-84
2022/04/17 11:12:51;;;;;;;6.73;6.03;;;;;;;14.52;59.00;96629.84;5087915;28;20215;-84
2022/04/17 11:15:42;;;;;;;6.10;5.50;;;;;;;14.30;59.61;96627.81;5082951;28;20296;-84
2022/04/17 11:18:11;;;;;;;6.50;5.90;;;;;;;14.32;58.52;96622.97;5072228;28;20202;-84
2022/04/17 11:20:39;;;;;;;6.73;5.60;;;;;;;14.32;58.40;96627.56;5070193;28;20278;-84
2022/04/17 11:23:10;;;;;;;7.47;6.07;;;;;;;14.47;60.53;96621.59;5070837;28;20223;-84
2022/04/17 11:25:50;;;;;;;6.13;5.50;;;;;;;14.72;58.35;96616.53;5080507;28;20213;-84
2022/04/17 11:28:36;;;;;;;6.97;6.17;;;;;;;14.76;57.78;96625.84;5085600;28;20217;-84
2022/04/17 11:31:04;;;;;;;7.03;6.10;;;;;;;14.75;58.51;96616.03;5075830;28;20213;-84
2022/04/17 11:33:31;;;;;;;7.10;6.20;;;;;;;14.81;56.88;96614.22;5071267;28;20265;-84
2022/04/17 11:36:00;;;;;;;6.60;5.90;;;;;;;15.02;59.63;96610.72;5082129;28;20242;-84
2022/04/17 11:38:27;;;;;;;6.63;5.93;;;;;;;15.07;58.44;96608.03;5082742;28;20229;-84
2022/04/17 11:40:54;;;;;;;6.50;5.87;;;;;;;15.36;56.57;96592.38;5079727;28;20322;-84
2022/04/17 11:43:22;;;;;;;8.63;6.30;;;;;;;15.43;56.36;96590.25;5074199;28;20208;-84
2022/04/17 11:45:49;;;;;;;7.03;5.37;;;;;;;15.59;54.37;96596.72;5085098;28;20230;-84
2022/04/17 11:48:17;;;;;;;6.50;5.60;;;;;;;15.48;55.41;96595.78;5071992;28;20324;-84
2022/04/17 11:50:45;;;;;;;6.77;6.07;;;;;;;15.27;55.91;96596.59;5076571;28;20215;-84
2022/04/17 11:53:16;;;;;;;6.83;6.07;;;;;;;15.20;55.96;96587.81;5078711;28;20202;-83
2022/04/17 11:55:44;;;;;;;8.27;5.80;;;;;;;15.61;56.80;96579.06;5080893;28;20215;-84
2022/04/17 11:58:12;;;;;;;7.23;6.43;;;;;;;15.84;55.69;96584.19;5076016;28;20205;-84